Time;durP1;ratioP1;P1;durP2;ratioP2;P2;SDS_P1;SDS_P2;PMS_P1;PMS_P2;Temp;Humidity;BMP_temperature;BMP_pressure;BME280_temperature;BME280_humidity;BME280_pressure;Samples;Min_cycle;Max_cycle;Signal;HPM_P1;HPM_P2
2024/01/15 16:22:04;;;;;;;;;17.00;15.00;;;;;-143.90;100.00;75006.84;4291682;29;104603;-71
2024/01/15 16:24:51;;;;;;;;;25.00;19.33;;;;;-143.90;100.00;75010.97;4727812;29;103165;-71
2024/01/15 16:27:21;;;;;;;;;23.67;21.33;;;;;-143.90;100.00;75015.09;4745680;29;102197;-72
2024/01/15 16:29:48;;;;;;;;;23.00;18.67;;;;;-143.90;100.00;75010.97;4747998;29;102280;-72
2024/01/15 16:32:15;;;;;;;;;23.33;18.33;;;;;-143.90;100.00;75006.84;4740003;29;101955;-72
2024/01/15 16:34:41;;;;;;;;;18.67;15.00;;;;;-143.90;100.00;75013.03;4748473;29;101914;-73
2024/01/15 16:37:09;;;;;;;;;24.67;19.00;;;;;-143.90;100.00;75019.22;4754704;29;101793;-72
2024/01/15 16:39:36;;;;;;;;;26.00;23.67;;;;;-143.90;100.00;75008.91;4722694;29;103049;-72
2024/01/15 16:42:03;;;;;;;;;18.00;15.33;;;;;-143.90;100.00;75006.84;4749700;29;102031;-72
2024/01/15 16:44:30;;;;;;;;;22.00;20.33;;;;;-143.90;100.00;75006.84;4757096;29;101866;-72
2024/01/15 16:46:59;;;;;;;;;13.33;13.33;;;;;-143.90;100.00;75004.75;4750740;29;104262;-72
2024/01/15 16:49:31;;;;;;;;;16.00;16.00;;;;;-143.90;100.00;75006.84;4746872;29;108194;-72
2024/01/15 16:51:58;;;;;;;;;23.67;19.00;;;;;-143.90;100.00;75004.75;4761321;23;103742;-72
2024/01/15 16:54:24;;;;;;;;;25.00;18.33;;;;;-143.90;100.00;75004.75;4720508;29;103638;-72
2024/01/15 16:56:51;;;;;;;;;21.33;17.00;;;;;-143.90;100.00;75006.84;4734851;29;102669;-71
2024/01/15 16:59:17;;;;;;;;;19.67;15.00;;;;;-143.90;100.00;75010.97;4713702;29;104397;-73
2024/01/15 17:01:44;;;;;;;;;18.67;15.33;;;;;-143.90;100.00;75017.16;4712868;29;102219;-72
2024/01/15 17:04:11;;;;;;;;;19.00;14.67;;;;;-143.90;100.00;75015.09;4732684;29;102926;-72
2024/01/15 17:06:37;;;;;;;;;17.33;15.67;;;;;-143.90;100.00;75023.38;4736208;29;102266;-73
2024/01/15 17:09:07;;;;;;;;;19.00;15.67;;;;;-143.90;100.00;75015.09;4712520;29;104341;-71
2024/01/15 17:11:34;;;;;;;;;22.00;15.00;;;;;-143.90;100.00;75019.22;4717717;29;102116;-73
2024/01/15 17:14:00;;;;;;;;;24.33;19.67;;;;;-143.90;100.00;75021.31;4728464;29;102250;-72
2024/01/15 17:16:27;;;;;;;;;25.33;18.00;;;;;-143.90;100.00;75033.72;4726719;29;102761;-72
2024/01/15 17:18:54;;;;;;;;;13.33;13.33;;;;;-143.90;100.00;75021.31;4725345;29;104081;-73
2024/01/15 17:21:23;;;;;;;;;15.33;12.67;;;;;-143.90;100.00;75031.63;4674123;29;102846;-73
2024/01/15 17:23:51;;;;;;;;;15.00;12.33;;;;;-143.90;100.00;75035.78;4711347;29;102231;-76
2024/01/15 17:26:20;;;;;;;;;17.00;13.67;;;;;-143.90;100.00;75037.84;4679121;29;102290;-73
2024/01/15 17:28:48;;;;;;;;;18.00;15.33;;;;;-143.90;100.00;75039.91;4646768;29;104893;-74
2024/01/15 17:31:16;;;;;;;;;20.67;15.33;;;;;-143.90;100.00;75046.09;4630135;29;102470;-78
2024/01/15 17:33:44;;;;;;;;;31.33;22.33;;;;;-143.90;100.00;75058.50;4665644;29;102481;-75
2024/01/15 17:36:12;;;;;;;;;25.33;22.67;;;;;-143.90;100.00;75066.78;4703456;29;102561;-74
2024/01/15 17:38:39;;;;;;;;;28.33;23.33;;;;;-143.90;100.00;75070.91;4682062;29;103836;-74
2024/01/15 17:41:05;;;;;;;;;29.67;23.33;;;;;-143.90;100.00;75066.78;4709951;29;102802;-74
2024/01/15 17:43:36;;;;;;;;;24.33;21.00;;;;;-143.90;100.00;75068.84;4707776;29;104395;-75
2024/01/15 17:46:05;;;;;;;;;26.67;21.33;;;;;-143.90;100.00;75075.06;4668047;29;104558;-77
2024/01/15 17:48:32;;;;;;;;;27.00;21.67;;;;;-143.90;100.00;75077.13;4705127;29;108443;-74
2024/01/15 17:51:00;;;;;;;;;30.67;23.67;;;;;-143.90;100.00;75085.38;4721188;29;102347;-77
2024/01/15 17:53:27;;;;;;;;;18.00;17.33;;;;;-143.90;100.00;75093.66;4679060;29;102529;-75
2024/01/15 17:55:57;;;;;;;;;21.33;18.33;;;;;-143.90;100.00;75091.59;4692349;29;104222;-76
2024/01/15 17:58:24;;;;;;;;;29.00;24.00;;;;;-143.90;100.00;75089.53;4691862;29;102587;-76
2024/01/15 18:00:51;;;;;;;;;21.67;16.67;;;;;-143.90;100.00;75099.88;4650524;29;102465;-74
2024/01/15 18:03:20;;;;;;;;;21.00;19.67;;;;;-143.90;100.00;75099.88;4595516;29;102628;-73
2024/01/15 18:05:47;;;;;;;;;25.33;17.33;;;;;-143.90;100.00;75093.66;4662113;29;102695;-74
2024/01/15 18:08:14;;;;;;;;;21.00;18.33;;;;;-143.90;100.00;75093.66;4671916;29;104213;-72
2024/01/15 18:10:42;;;;;;;;;18.33;14.00;;;;;-143.90;100.00;75095.72;4667813;29;103688;-73
2024/01/15 18:13:09;;;;;;;;;14.00;12.00;;;;;-143.90;100.00;75101.94;4657820;29;102855;-72
2024/01/15 18:15:37;;;;;;;;;18.33;15.00;;;;;-143.90;100.00;75122.59;4641025;29;102976;-76
2024/01/15 18:18:06;;;;;;;;;18.00;15.00;;;;;-143.90;100.00;75118.47;4664443;29;104763;-74
2024/01/15 18:20:36;;;;;;;;;18.33;11.00;;;;;-143.90;100.00;75118.47;4677851;29;103959;-73
2024/01/15 18:23:03;;;;;;;;;16.33;11.33;;;;;-143.90;100.00;75118.47;4685037;29;102275;-73
2024/01/15 18:25:30;;;;;;;;;16.33;12.00;;;;;-143.90;100.00;75108.13;4686531;29;102525;-74
2024/01/15 18:27:57;;;;;;;;;19.33;10.00;;;;;-143.90;100.00;75122.59;4685908;29;104092;-72
2024/01/15 18:30:23;;;;;;;;;23.67;18.33;;;;;-143.90;100.00;75122.59;4686397;29;102559;-75
2024/01/15 18:32:50;;;;;;;;;19.00;14.67;;;;;-143.90;100.00;75126.75;4675003;29;102261;-73
2024/01/15 18:35:18;;;;;;;;;16.00;13.33;;;;;-143.90;100.00;75118.47;4682868;29;102291;-76
2024/01/15 18:37:45;;;;;;;;;14.00;11.00;;;;;-143.90;100.00;75106.06;4696797;29;104491;-73
2024/01/15 18:40:13;;;;;;;;;17.33;16.00;;;;;-143.90;100.00;75110.19;4670176;29;102175;-73
2024/01/15 19:13:28;;;;;;;;;21.00;18.00;;;;;-143.90;100.00;75128.81;4674012;29;104659;-73
2024/01/15 19:16:21;;;;;;;;;25.33;17.33;;;;;-143.90;100.00;75118.47;4686237;29;102850;-71
2024/01/15 19:18:50;;;;;;;;;19.67;14.67;;;;;-143.90;100.00;75122.59;4650229;29;108913;-70
2024/01/15 19:21:17;;;;;;;;;19.33;13.33;;;;;-143.90;100.00;75122.59;4693733;29;102976;-72
2024/01/15 19:23:48;;;;;;;;;21.67;17.00;;;;;-143.90;100.00;75120.53;4642454;29;104589;-70
2024/01/15 19:26:18;;;;;;;;;13.33;12.67;;;;;-143.90;100.00;75118.47;4712841;29;102868;-70
2024/01/15 19:28:49;;;;;;;;;13.33;13.33;;;;;-143.90;100.00;75122.59;4709786;29;104289;-70
2024/01/15 19:31:21;;;;;;;;;20.67;15.00;;;;;-143.90;100.00;75128.81;4707430;29;102759;-71
2024/01/15 19:33:48;;;;;;;;;25.67;19.00;;;;;-143.90;100.00;75132.94;4698253;29;102881;-70
2024/01/15 19:36:22;;;;;;;;;17.33;15.00;;;;;-143.90;100.00;75137.06;4695148;29;102703;-70
2024/01/15 19:38:55;;;;;;;;;16.00;16.00;;;;;-143.90;100.00;75135.00;4673624;29;105116;-70
2024/01/15 19:41:22;;;;;;;;;15.67;11.33;;;;;-143.90;100.00;75126.75;4682896;29;103552;-70
2024/01/15 19:43:54;;;;;;;;;12.00;10.33;;;;;-143.90;100.00;75130.88;4676880;29;103238;-70
2024/01/15 19:46:21;;;;;;;;;16.33;13.33;;;;;-143.90;100.00;75130.88;4657418;29;103627;-70
2024/01/15 19:48:49;;;;;;;;;12.25;11.00;;;;;-143.90;100.00;75122.59;4644668;29;104960;-71
2024/01/15 19:51:18;;;;;;;;;16.00;14.33;;;;;-143.90;100.00;75126.75;4630119;29;103278;-72
2024/01/15 19:53:46;;;;;;;;;11.67;11.33;;;;;-143.90;100.00;75139.16;4673412;29;102801;-71
2024/01/15 19:56:16;;;;;;;;;14.00;12.00;;;;;-143.90;100.00;75126.75;4720409;29;107092;-72
2024/01/15 19:58:44;;;;;;;;;19.00;16.67;;;;;-143.90;100.00;75141.22;4716774;29;104325;-72
2024/01/15 20:01:11;;;;;;;;;17.33;14.33;;;;;-143.90;100.00;75149.47;4666200;29;102723;-70
2024/01/15 20:03:41;;;;;;;;;19.00;15.00;;;;;-143.90;100.00;75155.69;4661050;29;102860;-71
2024/01/15 20:06:14;;;;;;;;;15.33;14.00;;;;;-143.90;100.00;75172.22;4706129;29;102144;-70
2024/01/15 20:08:43;;;;;;;;;19.00;15.33;;;;;-143.90;100.00;75180.50;4705705;29;104713;-72
2024/01/15 20:11:10;;;;;;;;;20.00;17.67;;;;;-143.90;100.00;75201.16;4719203;29;103317;-72
2024/01/15 20:13:41;;;;;;;;;19.33;15.00;;;;;-143.90;100.00;75201.16;4696639;29;102119;-71
2024/01/15 20:16:13;;;;;;;;;22.00;17.33;;;;;-143.90;100.00;75205.28;4690271;29;102911;-71
2024/01/15 20:18:43;;;;;;;;;17.33;14.33;;;;;-143.90;100.00;75215.63;4679920;29;103244;-70
2024/01/15 20:21:11;;;;;;;;;21.67;17.67;;;;;-143.90;100.00;75225.97;4724003;29;102835;-70
2024/01/15 20:23:37;;;;;;;;;16.33;14.33;;;;;-143.90;100.00;75230.09;4710273;29;103678;-71
2024/01/15 20:26:16;;;;;;;;;18.00;17.00;;;;;-143.90;100.00;75232.19;4685228;29;102395;-70
2024/01/15 20:28:46;;;;;;;;;18.00;15.00;;;;;-143.90;100.00;75230.09;4706957;29;103691;-72
2024/01/15 20:31:13;;;;;;;;;20.33;15.33;;;;;-143.90;100.00;75236.31;4710161;29;102997;-71
2024/01/15 20:33:40;;;;;;;;;18.00;14.00;;;;;-143.90;100.00;75234.25;4703149;29;102956;-70
2024/01/15 20:36:12;;;;;;;;;22.67;14.00;;;;;-143.90;100.00;75246.66;4724424;29;102741;-70
2024/01/15 20:38:39;;;;;;;;;15.00;12.00;;;;;-143.90;100.00;75256.97;4687965;29;104446;-70
2024/01/15 20:41:07;;;;;;;;;19.00;16.33;;;;;-143.90;100.00;75263.19;4706152;29;102478;-71
2024/01/15 20:43:34;;;;;;;;;17.33;16.00;;;;;-143.90;100.00;75259.06;4731815;29;103780;-71
2024/01/15 20:46:01;;;;;;;;;16.33;14.33;;;;;-143.90;100.00;75261.13;4696271;29;103008;-71
2024/01/15 20:48:28;;;;;;;;;22.33;18.00;;;;;-143.90;100.00;75271.47;4708054;29;109231;-71
2024/01/15 20:50:57;;;;;;;;;27.67;21.00;;;;;-143.90;100.00;75277.66;4708124;29;104084;-70
2024/01/15 20:53:28;;;;;;;;;21.00;18.00;;;;;-143.90;100.00;75283.84;4685115;29;102893;-73
2024/01/15 20:55:54;;;;;;;;;20.67;16.67;;;;;-143.90;100.00;75281.78;4718704;29;107618;-70
2024/01/15 20:58:24;;;;;;;;;12.67;12.67;;;;;-143.90;100.00;75283.84;4716780;29;102705;-72
2024/01/15 21:00:51;;;;;;;;;17.67;14.00;;;;;-143.90;100.00;75283.84;4696895;29;104355;-71
2024/01/15 21:03:18;;;;;;;;;19.00;15.00;;;;;-143.90;100.00;75288.00;4693260;29;107628;-71
2024/01/15 21:05:46;;;;;;;;;17.67;14.00;;;;;-143.90;100.00;75298.34;4707952;29;104317;-71
2024/01/15 21:08:17;;;;;;;;;12.00;10.33;;;;;-143.90;100.00;75288.00;4713264;29;103964;-71
2024/01/15 21:10:44;;;;;;;;;15.00;13.33;;;;;-143.90;100.00;75298.34;4722284;29;104007;-71
2024/01/15 21:13:11;;;;;;;;;14.67;10.00;;;;;-143.90;100.00;75296.25;4662567;29;103463;-71
2024/01/15 21:15:38;;;;;;;;;16.33;15.33;;;;;-143.90;100.00;75306.59;4704311;29;102753;-72
2024/01/15 21:18:05;;;;;;;;;14.67;12.00;;;;;-143.90;100.00;75296.25;4695766;29;104277;-72
2024/01/15 21:20:33;;;;;;;;;14.00;10.00;;;;;-143.90;100.00;75290.06;4674583;29;103081;-73
2024/01/15 21:23:00;;;;;;;;;22.00;17.67;;;;;-143.90;100.00;75288.00;4668589;29;103093;-72
2024/01/15 21:25:27;;;;;;;;;18.67;15.00;;;;;-143.90;100.00;75279.72;4678308;29;102742;-71
2024/01/15 21:27:54;;;;;;;;;20.00;12.67;;;;;-143.90;100.00;75279.72;4712719;29;102507;-71
2024/01/15 21:30:22;;;;;;;;;14.33;11.00;;;;;-143.90;100.00;75273.53;4730543;29;102252;-71
2024/01/15 21:32:48;;;;;;;;;14.67;12.00;;;;;-143.90;100.00;75273.53;4732160;29;103101;-71
2024/01/15 21:35:15;;;;;;;;;14.67;11.67;;;;;-143.90;100.00;75263.19;4735516;29;103115;-71
2024/01/15 21:37:44;;;;;;;;;14.00;11.33;;;;;-143.90;100.00;75273.53;4741584;29;104082;-72
2024/01/15 21:40:11;;;;;;;;;17.00;14.67;;;;;-143.90;100.00;75275.59;4698360;29;103638;-72
2024/01/15 21:42:41;;;;;;;;;19.33;17.00;;;;;-143.90;100.00;75279.72;4659980;29;103424;-71
2024/01/15 21:45:08;;;;;;;;;18.00;12.00;;;;;-143.90;100.00;75267.31;4670514;29;102055;-72
2024/01/15 21:47:37;;;;;;;;;21.00;19.00;;;;;-143.90;100.00;75269.38;4678501;29;104028;-72
2024/01/15 21:50:06;;;;;;;;;15.00;11.00;;;;;-143.90;100.00;75275.59;4687099;29;102140;-70
2024/01/15 21:52:32;;;;;;;;;14.33;12.00;;;;;-143.90;100.00;75275.59;4685725;29;102169;-70
2024/01/15 21:55:01;;;;;;;;;17.67;14.67;;;;;-143.90;100.00;75277.66;4713670;29;101971;-70
2024/01/15 21:57:28;;;;;;;;;17.67;14.00;;;;;-143.90;100.00;75283.84;4683571;29;103431;-71
2024/01/15 21:59:56;;;;;;;;;15.67;11.67;;;;;-143.90;100.00;75283.84;4702722;29;101881;-70
2024/01/15 22:02:36;;;;;;;;;15.33;11.67;;;;;-143.90;100.00;75288.00;4705439;29;102576;-71
2024/01/15 22:05:03;;;;;;;;;11.00;9.67;;;;;-143.90;100.00;75290.06;4684591;29;101598;-70
2024/01/15 22:07:30;;;;;;;;;13.33;12.00;;;;;-143.90;100.00;75304.53;4714060;29;106901;-72
2024/01/15 22:09:57;;;;;;;;;10.00;10.00;;;;;-143.90;100.00;75312.81;4680079;29;101747;-72
2024/01/15 22:12:23;;;;;;;;;17.00;14.67;;;;;-143.90;100.00;75321.06;4702090;29;101886;-71
2024/01/15 22:14:50;;;;;;;;;23.33;15.00;;;;;-143.90;100.00;75331.41;4750190;29;101951;-71
2024/01/15 22:17:17;;;;;;;;;12.00;12.00;;;;;-143.90;100.00;75327.28;4711336;29;103854;-70
2024/01/15 22:19:52;;;;;;;;;10.00;8.33;;;;;-143.90;100.00;75325.22;4692304;29;103820;-71
2024/01/15 22:22:21;;;;;;;;;14.67;12.00;;;;;-143.90;100.00;75335.53;4711454;29;101833;-71
2024/01/15 22:24:47;;;;;;;;;14.00;11.00;;;;;-143.90;100.00;75339.69;4735871;29;101775;-71
2024/01/15 22:27:14;;;;;;;;;15.00;11.00;;;;;-143.90;100.00;75325.22;4695691;29;103050;-71
2024/01/15 22:29:41;;;;;;;;;17.67;10.00;;;;;-143.90;100.00;75329.34;4731046;29;101793;-72
2024/01/15 22:32:08;;;;;;;;;10.00;10.00;;;;;-143.90;100.00;75321.06;4722741;29;101786;-71
2024/01/15 22:34:35;;;;;;;;;13.00;8.00;;;;;-143.90;100.00;75321.06;4742576;29;101389;-72
2024/01/15 22:37:03;;;;;;;;;13.33;12.67;;;;;-143.90;100.00;75329.34;4747786;29;104505;-70
2024/01/15 22:39:30;;;;;;;;;15.33;11.00;;;;;-143.90;100.00;75333.47;4734114;29;103190;-70
2024/01/15 22:41:56;;;;;;;;;17.00;12.67;;;;;-143.90;100.00;75350.03;4725712;29;101838;-70
2024/01/15 22:44:23;;;;;;;;;13.67;12.33;;;;;-143.90;100.00;75337.63;4731567;29;102307;-70
2024/01/15 22:46:50;;;;;;;;;12.33;8.00;;;;;-143.90;100.00;75345.88;4725130;29;103217;-71
2024/01/15 22:49:20;;;;;;;;;11.33;8.00;;;;;-143.90;100.00;75350.03;4682498;29;102285;-71
2024/01/15 22:51:48;;;;;;;;;12.00;8.67;;;;;-143.90;100.00;75362.44;4719586;29;102002;-70
2024/01/15 22:54:14;;;;;;;;;10.00;7.00;;;;;-143.90;100.00;75370.69;4697269;29;101764;-71
2024/01/15 22:56:41;;;;;;;;;8.00;8.00;;;;;-143.90;100.00;75362.44;4721408;29;103600;-71
2024/01/15 22:59:08;;;;;;;;;10.33;10.33;;;;;-143.90;100.00;75374.84;4702791;29;101622;-70
2024/01/15 23:01:38;;;;;;;;;12.00;11.33;;;;;-143.90;100.00;75374.84;4711695;29;103490;-72
2024/01/15 23:04:04;;;;;;;;;11.00;10.00;;;;;-143.90;100.00;75383.09;4696937;29;103109;-71
2024/01/15 23:06:31;;;;;;;;;15.33;10.00;;;;;-143.90;100.00;75397.56;4695231;29;108027;-72
2024/01/15 23:08:58;;;;;;;;;22.00;14.67;;;;;-143.90;100.00;75403.78;4736453;29;102076;-72
2024/01/15 23:11:25;;;;;;;;;17.33;15.00;;;;;-143.90;100.00;75407.91;4724377;29;101865;-71
2024/01/15 23:13:52;;;;;;;;;19.00;12.00;;;;;-143.90;100.00;75407.91;4759560;29;101653;-71
2024/01/15 23:16:19;;;;;;;;;14.00;10.33;;;;;-143.90;100.00;75405.84;4733556;29;103823;-71
2024/01/15 23:18:49;;;;;;;;;13.33;11.33;;;;;-143.90;100.00;75399.63;4761447;29;101982;-71
2024/01/15 23:21:16;;;;;;;;;13.67;11.67;;;;;-143.90;100.00;75407.91;4729326;29;104148;-72
2024/01/15 23:23:43;;;;;;;;;8.00;8.00;;;;;-143.90;100.00;75409.97;4720899;29;102122;-70
2024/01/15 23:26:13;;;;;;;;;13.67;12.00;;;;;-143.90;100.00;75407.91;4760035;29;104992;-71
2024/01/15 23:28:40;;;;;;;;;11.00;10.00;;;;;-143.90;100.00;75407.91;4737064;29;101787;-72
2024/01/15 23:31:10;;;;;;;;;15.00;12.33;;;;;-143.90;100.00;75420.31;4755227;29;101658;-71
2024/01/15 23:33:39;;;;;;;;;13.00;10.00;;;;;-143.90;100.00;75409.97;4724872;29;102902;-72
2024/01/15 23:36:08;;;;;;;;;12.00;10.00;;;;;-143.90;100.00;75416.19;4726670;29;103466;-72
2024/01/15 23:38:46;;;;;;;;;12.33;11.00;;;;;-143.90;100.00;75407.91;4737102;29;101838;-67
2024/01/15 23:41:20;;;;;;;;;11.00;11.00;;;;;-143.90;100.00;75412.03;4731624;29;101982;-71
2024/01/15 23:43:48;;;;;;;;;8.00;8.00;;;;;-143.90;100.00;75401.72;4692797;29;102196;-69
2024/01/15 23:46:19;;;;;;;;;17.00;12.00;;;;;-143.90;100.00;75407.91;4712595;29;103569;-70
2024/01/15 23:48:48;;;;;;;;;9.33;6.33;;;;;-143.90;100.00;75409.97;4658749;29;102757;-70
2024/01/15 23:51:15;;;;;;;;;9.33;7.67;;;;;-143.90;100.00;75416.19;4674081;29;101984;-72
2024/01/15 23:53:42;;;;;;;;;13.33;10.00;;;;;-143.90;100.00;75409.97;4709763;29;102304;-70
2024/01/15 23:56:14;;;;;;;;;14.00;13.00;;;;;-143.90;100.00;75420.31;4687277;29;103141;-69
2024/01/15 23:58:41;;;;;;;;;15.00;11.33;;;;;-143.90;100.00;75428.59;4710175;29;102264;-70
